createdAt,value
2018-12-24T00:02:12.343Z,96.72
2018-12-24T00:05:02.149Z,96.87
2018-12-24T00:07:51.927Z,96.93
2018-12-24T00:10:41.788Z,97.01
2018-12-24T00:13:31.711Z,97.04
2018-12-24T00:16:14.175Z,96.95
2018-12-24T00:19:04.031Z,96.98
2018-12-24T00:21:54.085Z,96.88
2018-12-24T00:24:44.023Z,96.79
2018-12-24T00:27:40.893Z,96.78
2018-12-24T00:30:30.855Z,96.69
2018-12-24T00:33:20.667Z,96.78
2018-12-24T00:36:10.832Z,96.85
2018-12-24T00:39:00.749Z,96.93
2018-12-24T00:41:50.606Z,96.99
2018-12-24T00:44:40.550Z,97.05
2018-12-24T00:47:30.316Z,97.07
2018-12-24T00:50:20.484Z,97.13
2018-12-24T00:53:10.333Z,97.07
2018-12-24T00:56:00.744Z,96.97
2018-12-24T00:58:50.534Z,96.96
2018-12-24T01:01:40.306Z,96.94
2018-12-24T01:04:30.341Z,96.84
2018-12-24T01:07:20.114Z,96.85
2018-12-24T01:10:10.044Z,96.81
2018-12-24T01:12:59.875Z,96.75
2018-12-24T01:18:37.608Z,96.43
2018-12-24T01:21:27.461Z,96.37
2018-12-24T01:24:17.314Z,96.35
2018-12-24T01:27:07.171Z,96.40
2018-12-24T01:29:57.018Z,96.33
2018-12-24T01:32:46.794Z,96.24
2018-12-24T01:35:36.571Z,96.23
2018-12-24T01:38:26.355Z,96.09
2018-12-24T01:41:16.234Z,96.03
2018-12-24T01:44:06.084Z,96.22
2018-12-24T01:46:56.784Z,96.23
2018-12-24T01:49:46.619Z,96.25
2018-12-24T01:52:36.387Z,96.12
2018-12-24T01:55:45.273Z,96.19
2018-12-24T01:58:35.054Z,96.17
2018-12-24T02:01:24.915Z,96.25
2018-12-24T02:04:15.428Z,96.39
2018-12-24T02:07:05.347Z,96.44
2018-12-24T02:09:55.173Z,96.53
2018-12-24T02:12:45.028Z,96.63
2018-12-24T02:15:34.872Z,96.65
2018-12-24T02:18:17.320Z,96.67
2018-12-24T02:21:07.246Z,96.73
2018-12-24T02:23:57.071Z,96.84
2018-12-24T02:26:46.922Z,96.89
2018-12-24T02:29:55.632Z,92.76
2018-12-24T02:32:45.483Z,90.89
2018-12-24T02:35:35.630Z,94.29
2018-12-24T02:38:25.791Z,94.63
2018-12-24T02:41:35.070Z,95.54
2018-12-24T02:44:24.903Z,95.61
2018-12-24T02:47:14.739Z,95.72
2018-12-24T02:50:04.795Z,95.80
2018-12-24T02:52:54.560Z,95.31
2018-12-24T02:55:44.418Z,95.47
2018-12-24T02:58:34.180Z,95.65
2018-12-24T03:01:24.020Z,95.51
2018-12-24T03:04:13.782Z,95.58
2018-12-24T03:07:03.875Z,95.66
2018-12-24T03:09:53.706Z,95.46
2018-12-24T03:12:43.553Z,95.22
2018-12-24T03:15:33.364Z,95.19
2018-12-24T03:18:15.906Z,95.34
2018-12-24T03:21:05.803Z,94.99
2018-12-24T03:23:55.967Z,94.68
2018-12-24T03:26:45.768Z,94.77
2018-12-24T03:29:35.677Z,94.25
2018-12-24T03:32:25.598Z,94.91
2018-12-24T03:35:15.434Z,95.02
2018-12-24T03:38:05.607Z,93.65
2018-12-24T03:41:15.899Z,93.46
2018-12-24T03:44:05.735Z,92.96
2018-12-24T03:46:55.655Z,93.69
2018-12-24T03:49:45.494Z,94.03
2018-12-24T03:52:35.598Z,93.62
2018-12-24T03:55:25.441Z,93.81
2018-12-24T03:58:15.292Z,94.50
2018-12-24T04:01:05.119Z,93.92
2018-12-24T04:04:13.991Z,94.37
2018-12-24T04:07:04.164Z,94.62
2018-12-24T04:09:54.100Z,94.43
2018-12-24T04:12:43.974Z,94.52
2018-12-24T04:15:33.738Z,93.99
2018-12-24T04:18:16.403Z,94.44
2018-12-24T04:21:06.608Z,94.42
2018-12-24T04:23:56.732Z,94.73
2018-12-24T04:26:46.570Z,93.82
2018-12-24T04:29:36.669Z,93.10
2018-12-24T04:32:26.421Z,93.10
2018-12-24T04:35:16.196Z,93.65
2018-12-24T04:38:06.126Z,93.51
2018-12-24T04:40:55.981Z,94.35
2018-12-24T04:43:46.084Z,94.36
2018-12-24T04:46:36.286Z,94.74
2018-12-24T04:49:26.355Z,94.16
2018-12-24T04:52:16.376Z,94.34
2018-12-24T04:55:06.631Z,94.15
2018-12-24T04:57:56.672Z,93.80
2018-12-24T05:00:46.523Z,94.15
2018-12-24T05:03:36.310Z,93.86
2018-12-24T05:06:26.399Z,94.27
2018-12-24T05:09:16.630Z,94.64
2018-12-24T05:12:25.260Z,94.08
2018-12-24T05:15:15.172Z,94.58
2018-12-24T05:17:57.383Z,94.74
2018-12-24T05:20:47.551Z,94.60
2018-12-24T05:23:37.633Z,94.37
2018-12-24T05:26:27.473Z,94.86
2018-12-24T05:29:17.325Z,94.55
2018-12-24T05:32:07.227Z,94.65
2018-12-24T05:34:57.078Z,95.07
2018-12-24T05:37:47.244Z,94.93
2018-12-24T05:40:37.032Z,94.71
2018-12-24T05:43:26.812Z,94.90
2018-12-24T05:46:16.908Z,94.20
2018-12-24T05:49:06.658Z,94.68
2018-12-24T05:51:56.834Z,94.75
2018-12-24T05:55:05.717Z,94.87
2018-12-24T05:57:55.927Z,94.98
2018-12-24T06:00:46.097Z,94.69
2018-12-24T06:03:36.243Z,93.89
2018-12-24T06:06:26.349Z,94.21
2018-12-24T06:09:16.398Z,94.08
2018-12-24T06:12:06.625Z,94.42
2018-12-24T06:14:56.690Z,94.36
2018-12-24T06:17:38.711Z,94.77
2018-12-24T06:20:28.490Z,94.77
2018-12-24T06:23:18.327Z,94.31
2018-12-24T06:26:08.363Z,94.88
2018-12-24T06:28:58.854Z,94.65
2018-12-24T06:31:48.722Z,94.79
2018-12-24T06:34:38.667Z,94.90
2018-12-24T06:37:28.841Z,94.29
2018-12-24T06:40:18.735Z,94.87
2018-12-24T06:43:08.499Z,94.76
2018-12-24T06:45:58.812Z,94.45
2018-12-24T06:48:48.642Z,94.30
2018-12-24T06:51:38.429Z,94.26
2018-12-24T06:54:28.512Z,94.03
2018-12-24T06:57:18.433Z,93.86
2018-12-24T07:00:08.383Z,94.18
2018-12-24T07:02:58.265Z,93.84
2018-12-24T07:05:48.844Z,94.63
2018-12-24T07:08:39.045Z,94.15
2018-12-24T07:11:48.090Z,94.18
2018-12-24T07:14:37.922Z,93.68
2018-12-24T07:17:21.160Z,94.20
2018-12-24T07:20:11.007Z,94.24
2018-12-24T07:23:00.948Z,94.00
2018-12-24T07:25:51.134Z,93.90
2018-12-24T07:29:00.103Z,94.11
2018-12-24T07:31:50.274Z,93.64
2018-12-24T07:34:40.126Z,93.67
2018-12-24T07:37:30.371Z,94.20
2018-12-24T07:40:20.217Z,93.16
2018-12-24T07:43:10.064Z,93.71
2018-12-24T07:45:59.905Z,93.82
2018-12-24T07:48:50.072Z,93.45
2018-12-24T07:51:39.906Z,93.73
2018-12-24T07:54:29.766Z,94.27
2018-12-24T07:57:19.675Z,94.23
2018-12-24T08:00:09.746Z,94.50
2018-12-24T08:02:59.616Z,94.03
2018-12-24T08:05:49.663Z,94.18
2018-12-24T08:08:39.755Z,93.91
2018-12-24T08:11:29.859Z,93.91
2018-12-24T08:14:19.748Z,94.37
2018-12-24T08:17:01.834Z,94.00
2018-12-24T08:22:47.513Z,93.80
2018-12-24T08:25:37.612Z,93.92
2018-12-24T08:28:27.558Z,93.57
2018-12-24T08:31:17.323Z,93.49
2018-12-24T08:34:07.440Z,93.98
2018-12-24T08:36:57.277Z,93.49
2018-12-24T08:39:47.479Z,92.80
2018-12-24T08:42:37.305Z,92.36
2018-12-24T08:45:27.413Z,92.14
2018-12-24T08:48:36.466Z,92.82
2018-12-24T08:54:35.427Z,92.39
2018-12-24T08:57:25.382Z,92.78
2018-12-24T09:00:34.130Z,93.19
2018-12-24T09:03:24.293Z,92.65
2018-12-24T09:06:14.170Z,92.93
2018-12-24T09:09:23.080Z,93.71
2018-12-24T09:15:21.691Z,93.02
2018-12-24T09:18:04.439Z,92.08
2018-12-24T09:20:54.288Z,92.73
2018-12-24T09:23:44.141Z,92.60
2018-12-24T09:26:53.177Z,91.71
2018-12-24T09:29:43.410Z,91.52
2018-12-24T09:36:01.525Z,89.01
2018-12-24T09:38:51.464Z,87.96
2018-12-24T09:48:05.211Z,87.90
2018-12-24T09:50:54.990Z,87.67
2018-12-24T09:53:45.181Z,87.51
2018-12-24T09:56:35.300Z,86.64
2018-12-24T09:59:25.518Z,84.20
2018-12-24T10:02:34.619Z,86.47
2018-12-24T10:05:26.188Z,85.32
2018-12-24T10:08:38.247Z,84.99
2018-12-24T10:11:28.396Z,85.74
2018-12-24T10:14:18.767Z,86.31
2018-12-24T10:17:00.991Z,85.36
2018-12-24T10:19:51.067Z,84.17
2018-12-24T10:22:41.256Z,85.19
2018-12-24T10:25:31.396Z,85.12
2018-12-24T10:28:21.533Z,84.07
2018-12-24T10:31:12.072Z,84.78
2018-12-24T10:34:01.842Z,84.88
2018-12-24T10:36:51.998Z,84.27
2018-12-24T10:39:42.166Z,84.62
2018-12-24T10:42:32.098Z,85.36
2018-12-24T10:45:21.938Z,84.94
2018-12-24T10:48:11.843Z,85.93
2018-12-24T10:51:01.687Z,86.58
2018-12-24T10:54:10.535Z,84.73
2018-12-24T10:57:00.490Z,85.14
2018-12-24T10:59:50.698Z,82.99
2018-12-24T11:02:40.931Z,84.05
2018-12-24T11:05:30.906Z,83.27
2018-12-24T11:08:21.101Z,83.65
2018-12-24T11:11:11.302Z,84.72
2018-12-24T11:14:01.234Z,84.34
2018-12-24T11:16:43.734Z,84.64
2018-12-24T11:19:34.266Z,83.24
2018-12-24T11:22:24.351Z,82.09
2018-12-24T11:25:14.537Z,82.76
2018-12-24T11:28:04.771Z,83.34
2018-12-24T11:30:54.820Z,82.29
2018-12-24T11:33:44.734Z,82.62
2018-12-24T11:36:34.620Z,82.46
2018-12-24T11:39:24.732Z,84.76
2018-12-24T11:42:14.854Z,87.18
2018-12-24T11:45:04.883Z,88.10
2018-12-24T11:47:54.754Z,89.87
2018-12-24T11:50:44.669Z,90.47
2018-12-24T11:53:34.530Z,90.92
2018-12-24T11:56:24.363Z,90.62
2018-12-24T11:59:14.237Z,89.32
2018-12-24T12:02:09.891Z,89.05
2018-12-24T12:04:56.445Z,88.65
2018-12-24T12:07:46.763Z,87.89
2018-12-24T12:10:36.951Z,89.44
2018-12-24T12:13:26.822Z,88.98
2018-12-24T12:16:35.659Z,88.60
2018-12-24T12:19:18.476Z,88.34
2018-12-24T12:22:08.670Z,88.87
2018-12-24T12:24:59.214Z,89.14
2018-12-24T12:27:49.136Z,88.33
2018-12-24T12:30:58.266Z,87.64
2018-12-24T12:33:48.427Z,84.35
2018-12-24T12:36:38.276Z,82.42
2018-12-24T12:39:28.428Z,82.46
2018-12-24T12:42:18.339Z,83.45
2018-12-24T12:45:08.279Z,83.52
2018-12-24T12:47:58.124Z,84.29
2018-12-24T12:50:48.175Z,84.58
2018-12-24T12:53:38.231Z,84.14
2018-12-24T12:56:28.154Z,84.09
2018-12-24T12:59:18.088Z,84.59
2018-12-24T13:02:27.157Z,84.74
2018-12-24T13:05:17.374Z,83.87
2018-12-24T13:08:07.146Z,84.95
2018-12-24T13:10:56.998Z,85.19
2018-12-24T13:13:47.101Z,83.81
2018-12-24T13:16:36.950Z,82.25
2018-12-24T13:19:26.833Z,81.83
2018-12-24T13:22:35.994Z,80.63
2018-12-24T13:25:26.070Z,74.78
2018-12-24T13:28:15.916Z,72.40
2018-12-24T13:31:05.874Z,74.83
2018-12-24T13:33:55.734Z,77.44
2018-12-24T13:36:45.590Z,81.55
2018-12-24T13:39:35.509Z,82.87
2018-12-24T13:42:25.341Z,83.12
2018-12-24T13:45:15.217Z,83.51
2018-12-24T13:48:04.973Z,83.96
2018-12-24T13:50:55.467Z,84.54
2018-12-24T13:53:45.478Z,84.95
2018-12-24T13:56:35.410Z,84.80
2018-12-24T13:59:25.177Z,84.71
2018-12-24T14:02:16.516Z,84.80
2018-12-24T14:05:06.858Z,84.34
2018-12-24T14:07:56.610Z,84.37
2018-12-24T14:10:46.387Z,84.62
2018-12-24T14:13:36.224Z,83.53
2018-12-24T14:16:26.097Z,83.04
2018-12-24T14:19:08.700Z,84.13
2018-12-24T14:22:17.713Z,83.89
2018-12-24T14:25:26.642Z,81.91
2018-12-24T14:28:16.503Z,83.65
2018-12-24T14:34:01.901Z,82.62
2018-12-24T14:36:51.651Z,83.17
2018-12-24T14:39:41.502Z,84.24
2018-12-24T14:42:50.346Z,84.80
2018-12-24T14:45:40.538Z,84.98
2018-12-24T14:48:30.370Z,85.17
2018-12-24T14:51:20.138Z,84.89
2018-12-24T14:54:10.238Z,84.22
2018-12-24T14:57:00.083Z,83.13
2018-12-24T14:59:49.921Z,83.16
2018-12-24T15:02:40.108Z,84.16
2018-12-24T15:05:30.045Z,84.07
2018-12-24T15:08:19.890Z,84.89
2018-12-24T15:11:10.081Z,84.51
2018-12-24T15:14:00.272Z,83.96
2018-12-24T15:16:50.051Z,84.81
2018-12-24T15:19:39.964Z,83.86
2018-12-24T15:22:29.728Z,83.45
2018-12-24T15:25:19.571Z,83.36
2018-12-24T15:28:09.489Z,83.71
2018-12-24T15:30:59.782Z,83.87
2018-12-24T15:33:49.954Z,84.18
2018-12-24T15:39:35.621Z,84.25
2018-12-24T15:42:25.554Z,84.80
2018-12-24T15:45:15.744Z,85.50
2018-12-24T15:48:05.665Z,85.91
2018-12-24T15:50:55.520Z,86.50
2018-12-24T15:53:45.271Z,86.75
2018-12-24T15:56:35.537Z,86.72
2018-12-24T15:59:26.108Z,86.42
2018-12-24T16:02:15.966Z,86.50
2018-12-24T16:05:06.357Z,86.46
2018-12-24T16:07:56.169Z,86.88
2018-12-24T16:10:46.279Z,86.78
2018-12-24T16:13:36.449Z,87.65
2018-12-24T16:16:26.242Z,87.84
2018-12-24T16:19:08.865Z,87.72
2018-12-24T16:21:58.726Z,87.75
2018-12-24T16:24:48.515Z,88.43
2018-12-24T16:27:57.168Z,88.68
2018-12-24T16:30:47.102Z,88.75
2018-12-24T16:33:37.370Z,88.66
2018-12-24T16:36:27.174Z,88.84
2018-12-24T16:39:16.961Z,89.55
2018-12-24T16:42:06.822Z,89.61
2018-12-24T16:44:57.375Z,89.28
2018-12-24T16:47:47.231Z,89.02
2018-12-24T16:50:37.170Z,88.97
2018-12-24T16:53:27.446Z,88.65
2018-12-24T16:59:07.160Z,89.38
2018-12-24T17:01:57.333Z,89.75
2018-12-24T17:04:47.104Z,89.91
2018-12-24T17:10:33.135Z,89.34
2018-12-24T17:13:23.346Z,89.84
2018-12-24T17:16:13.502Z,90.21
2018-12-24T17:18:56.534Z,90.29
2018-12-24T17:21:46.456Z,90.31
2018-12-24T17:24:36.311Z,91.17
2018-12-24T17:27:26.077Z,91.66
2018-12-24T17:30:16.031Z,92.06
2018-12-24T17:33:05.876Z,92.41
2018-12-24T17:35:56.025Z,92.41
2018-12-24T17:39:04.777Z,92.46
2018-12-24T17:41:54.691Z,92.47
2018-12-24T17:44:44.625Z,92.89
2018-12-24T17:47:34.821Z,92.78
2018-12-24T17:50:25.013Z,92.63
2018-12-24T17:56:23.818Z,93.25
2018-12-24T17:59:13.870Z,93.50
2018-12-24T18:02:03.673Z,93.42
2018-12-24T18:04:53.935Z,93.37
2018-12-24T18:07:43.779Z,93.11
2018-12-24T18:10:34.088Z,92.99
2018-12-24T18:13:24.134Z,92.81
2018-12-24T18:16:13.965Z,93.06
2018-12-24T18:18:56.319Z,93.24
2018-12-24T18:21:46.242Z,93.51
2018-12-24T18:24:36.181Z,93.64
2018-12-24T18:27:26.387Z,93.63
2018-12-24T18:30:35.035Z,93.56
2018-12-24T18:33:25.201Z,93.67
2018-12-24T18:36:15.100Z,93.33
2018-12-24T18:39:06.985Z,93.26
2018-12-24T18:41:56.846Z,93.50
2018-12-24T18:44:46.600Z,93.40
2018-12-24T18:47:36.419Z,92.97
2018-12-24T18:50:26.186Z,92.63
2018-12-24T18:53:16.268Z,92.47
2018-12-24T18:56:06.381Z,92.23
2018-12-24T18:59:15.007Z,91.97
2018-12-24T19:02:05.208Z,92.07
2018-12-24T19:04:57.854Z,91.85
2018-12-24T19:10:56.382Z,92.09
2018-12-24T19:13:46.406Z,92.22
2018-12-24T19:16:36.430Z,92.52
2018-12-24T19:19:19.324Z,92.54
2018-12-24T19:22:09.175Z,92.48
2018-12-24T19:24:59.112Z,92.51
2018-12-24T19:27:49.032Z,92.45
2018-12-24T19:30:38.989Z,92.82
2018-12-24T19:33:28.949Z,93.05
2018-12-24T19:36:18.874Z,93.52
2018-12-24T19:39:08.780Z,93.25
2018-12-24T19:45:13.430Z,93.07
2018-12-24T19:48:03.295Z,93.09
2018-12-24T19:50:53.346Z,92.98
2018-12-24T19:53:43.092Z,93.18
2018-12-24T19:56:33.179Z,93.42
2018-12-24T19:59:23.336Z,93.63
2018-12-24T20:02:13.193Z,93.61
2018-12-24T20:05:03.387Z,93.74
2018-12-24T20:08:12.295Z,93.99
2018-12-24T20:11:02.118Z,94.60
2018-12-24T20:13:51.975Z,94.68
2018-12-24T20:16:41.916Z,94.16
2018-12-24T20:19:22.900Z,93.89
2018-12-24T20:28:03.962Z,93.17
2018-12-24T20:30:53.890Z,93.36
2018-12-24T20:34:02.873Z,93.39
2018-12-24T20:36:53.043Z,93.62
2018-12-24T20:39:43.080Z,93.56
2018-12-24T20:42:33.008Z,93.30
2018-12-24T20:45:22.852Z,93.56
2018-12-24T20:48:12.702Z,93.50
2018-12-24T20:54:11.253Z,93.65
2018-12-24T20:57:01.936Z,93.75
2018-12-24T21:00:10.991Z,93.85
2018-12-24T21:03:01.247Z,93.92
2018-12-24T21:05:51.262Z,93.83
2018-12-24T21:08:41.031Z,93.78
2018-12-24T21:11:31.218Z,93.65
2018-12-24T21:17:22.635Z,93.29
2018-12-24T21:20:12.557Z,93.39
2018-12-24T21:23:02.482Z,93.45
2018-12-24T21:25:52.307Z,93.37
2018-12-24T21:28:42.382Z,93.45
2018-12-24T21:31:32.155Z,92.81
2018-12-24T21:34:22.022Z,93.04
2018-12-24T21:37:12.135Z,92.83
2018-12-24T21:40:02.528Z,93.02
2018-12-24T21:42:54.755Z,92.70
2018-12-24T21:45:43.984Z,93.05
2018-12-24T21:48:33.867Z,92.88
2018-12-24T21:51:24.308Z,93.41
2018-12-24T21:53:55.453Z,93.46
2018-12-24T21:56:45.290Z,93.37
2018-12-24T21:59:35.683Z,92.57
2018-12-24T22:02:39.618Z,92.29
2018-12-24T22:05:30.930Z,92.56
2018-12-24T22:08:20.777Z,92.89
2018-12-24T22:11:10.563Z,92.79
2018-12-24T22:14:00.486Z,93.34
2018-12-24T22:16:50.268Z,94.04
2018-12-24T22:19:33.275Z,94.19
2018-12-24T22:22:43.967Z,94.15
2018-12-24T22:28:29.564Z,94.21
2018-12-24T22:34:28.361Z,94.33
2018-12-24T22:37:18.574Z,94.28
2018-12-24T22:40:08.341Z,94.34
2018-12-24T22:42:58.382Z,94.39
2018-12-24T22:45:48.454Z,94.27
2018-12-24T22:48:40.852Z,94.30
2018-12-24T22:51:30.343Z,94.01
2018-12-24T22:54:20.522Z,94.00
2018-12-24T22:57:10.241Z,94.05
2018-12-24T23:00:00.020Z,93.95
2018-12-24T23:02:49.935Z,93.90
2018-12-24T23:05:39.792Z,93.67
2018-12-24T23:08:29.551Z,93.29
2018-12-24T23:11:19.427Z,92.04
2018-12-24T23:14:09.619Z,92.09
2018-12-24T23:16:59.882Z,91.22
2018-12-24T23:19:49.729Z,91.25
2018-12-24T23:22:39.490Z,90.50
2018-12-24T23:25:29.337Z,90.52
2018-12-24T23:28:19.195Z,91.01
2018-12-24T23:31:09.268Z,90.43
2018-12-24T23:33:59.113Z,90.41
2018-12-24T23:36:49.024Z,90.24
2018-12-24T23:39:38.781Z,89.72
2018-12-24T23:42:28.641Z,89.73
2018-12-24T23:45:18.875Z,88.34
2018-12-24T23:48:08.643Z,89.06
2018-12-24T23:50:58.806Z,88.69
2018-12-24T23:54:07.521Z,88.71
2018-12-24T23:56:57.816Z,88.73
2018-12-24T23:59:47.583Z,88.35
